sensor_id;sensor_type;location;lat;lon;timestamp;pressure;altitude;pressure_sealevel;temperature;humidity
50702;BME280;36670;50.094;8.496;2023-04-01T00:00:30;98610.09;;;12.08;64.84
50702;BME280;36670;50.094;8.496;2023-04-01T00:02:56;98609.97;;;12.13;64.77
50702;BME280;36670;50.094;8.496;2023-04-01T00:05:21;98606.81;;;12.34;63.85
50702;BME280;36670;50.094;8.496;2023-04-01T00:07:47;98608.53;;;12.16;64.79
50702;BME280;36670;50.094;8.496;2023-04-01T00:10:13;98604.75;;;12.12;63.69
50702;BME280;36670;50.094;8.496;2023-04-01T00:12:39;98606.81;;;12.20;64.00
50702;BME280;36670;50.094;8.496;2023-04-01T00:15:06;98601.56;;;12.05;63.89
50702;BME280;36670;50.094;8.496;2023-04-01T00:17:32;98601.38;;;12.01;64.23
50702;BME280;36670;50.094;8.496;2023-04-01T00:19:58;98607.94;;;12.05;64.56
50702;BME280;36670;50.094;8.496;2023-04-01T00:22:24;98592.53;;;11.99;64.76
50702;BME280;36670;50.094;8.496;2023-04-01T00:24:51;98599.56;;;11.91;64.93
50702;BME280;36670;50.094;8.496;2023-04-01T00:27:16;98587.31;;;11.98;64.81
50702;BME280;36670;50.094;8.496;2023-04-01T00:29:42;98595.59;;;11.98;64.84
50702;BME280;36670;50.094;8.496;2023-04-01T00:32:08;98590.97;;;11.93;64.60
50702;BME280;36670;50.094;8.496;2023-04-01T00:34:33;98587.94;;;11.94;64.93
50702;BME280;36670;50.094;8.496;2023-04-01T00:36:58;98595.00;;;12.01;64.61
50702;BME280;36670;50.094;8.496;2023-04-01T00:39:23;98590.50;;;12.05;64.63
50702;BME280;36670;50.094;8.496;2023-04-01T00:41:49;98598.91;;;12.00;64.32
50702;BME280;36670;50.094;8.496;2023-04-01T00:44:18;98596.34;;;12.03;64.06
50702;BME280;36670;50.094;8.496;2023-04-01T00:46:44;98593.56;;;12.03;64.16
50702;BME280;36670;50.094;8.496;2023-04-01T00:49:09;98599.03;;;12.08;64.61
50702;BME280;36670;50.094;8.496;2023-04-01T00:51:36;98583.84;;;12.06;64.09
50702;BME280;36670;50.094;8.496;2023-04-01T00:54:03;98593.19;;;12.10;64.73
50702;BME280;36670;50.094;8.496;2023-04-01T00:56:38;98595.41;;;12.08;63.88
50702;BME280;36670;50.094;8.496;2023-04-01T00:59:14;98595.31;;;12.13;63.45
50702;BME280;36670;50.094;8.496;2023-04-01T01:01:40;98584.88;;;12.10;63.26
50702;BME280;36670;50.094;8.496;2023-04-01T01:04:06;98587.31;;;11.98;63.80
50702;BME280;36670;50.094;8.496;2023-04-01T01:09:11;98584.88;;;12.10;63.54
50702;BME280;36670;50.094;8.496;2023-04-01T01:11:48;98589.88;;;12.08;62.90
50702;BME280;36670;50.094;8.496;2023-04-01T01:14:36;98588.84;;;12.04;62.69
50702;BME280;36670;50.094;8.496;2023-04-01T01:17:15;98592.16;;;12.06;63.56
50702;BME280;36670;50.094;8.496;2023-04-01T01:20:02;98574.69;;;11.91;63.67
50702;BME280;36670;50.094;8.496;2023-04-01T01:22:57;98589.78;;;12.13;63.39
50702;BME280;36670;50.094;8.496;2023-04-01T01:25:57;98575.31;;;12.02;63.47
50702;BME280;36670;50.094;8.496;2023-04-01T01:28:37;98578.63;;;12.04;63.09
50702;BME280;36670;50.094;8.496;2023-04-01T01:31:24;98589.06;;;12.07;62.89
50702;BME280;36670;50.094;8.496;2023-04-01T01:34:03;98582.31;;;12.00;62.88
50702;BME280;36670;50.094;8.496;2023-04-01T01:36:32;98579.66;;;12.08;62.89
50702;BME280;36670;50.094;8.496;2023-04-01T01:39:05;98568.06;;;12.20;62.10
50702;BME280;36670;50.094;8.496;2023-04-01T01:41:34;98575.84;;;12.04;62.76
50702;BME280;36670;50.094;8.496;2023-04-01T01:44:03;98576.03;;;12.08;62.22
50702;BME280;36670;50.094;8.496;2023-04-01T01:46:30;98581.78;;;11.98;62.76
50702;BME280;36670;50.094;8.496;2023-04-01T01:48:56;98571.34;;;11.94;62.51
50702;BME280;36670;50.094;8.496;2023-04-01T01:51:23;98579.81;;;11.98;62.46
50702;BME280;36670;50.094;8.496;2023-04-01T01:53:49;98564.09;;;11.79;63.31
50702;BME280;36670;50.094;8.496;2023-04-01T01:56:17;98571.47;;;11.84;62.84
50702;BME280;36670;50.094;8.496;2023-04-01T01:58:46;98561.97;;;11.90;62.79
50702;BME280;36670;50.094;8.496;2023-04-01T02:01:18;98569.53;;;11.85;62.47
50702;BME280;36670;50.094;8.496;2023-04-01T02:03:45;98562.06;;;11.85;63.23
50702;BME280;36670;50.094;8.496;2023-04-01T02:06:16;98565.22;;;11.78;63.34
50702;BME280;36670;50.094;8.496;2023-04-01T02:08:45;98562.94;;;12.00;62.40
50702;BME280;36670;50.094;8.496;2023-04-01T02:11:14;98562.19;;;11.94;62.36
50702;BME280;36670;50.094;8.496;2023-04-01T02:13:50;98557.19;;;11.96;62.43
50702;BME280;36670;50.094;8.496;2023-04-01T02:16:45;98566.16;;;11.88;63.25
50702;BME280;36670;50.094;8.496;2023-04-01T02:19:09;98559.81;;;11.87;62.99
50702;BME280;36670;50.094;8.496;2023-04-01T02:21:36;98564.91;;;11.80;62.90
50702;BME280;36670;50.094;8.496;2023-04-01T02:24:06;98563.78;;;11.81;62.71
50702;BME280;36670;50.094;8.496;2023-04-01T02:26:34;98564.63;;;11.82;63.74
50702;BME280;36670;50.094;8.496;2023-04-01T02:29:00;98557.75;;;11.79;63.55
50702;BME280;36670;50.094;8.496;2023-04-01T02:31:27;98564.78;;;11.71;63.10
50702;BME280;36670;50.094;8.496;2023-04-01T02:33:53;98566.53;;;11.81;63.44
50702;BME280;36670;50.094;8.496;2023-04-01T02:36:19;98558.78;;;11.83;63.71
50702;BME280;36670;50.094;8.496;2023-04-01T02:38:45;98576.69;;;11.72;63.48
50702;BME280;36670;50.094;8.496;2023-04-01T02:41:11;98563.34;;;11.74;63.15
50702;BME280;36670;50.094;8.496;2023-04-01T02:43:37;98562.44;;;11.78;63.48
50702;BME280;36670;50.094;8.496;2023-04-01T02:46:03;98566.63;;;11.76;63.42
50702;BME280;36670;50.094;8.496;2023-04-01T02:48:29;98569.13;;;11.77;63.42
50702;BME280;36670;50.094;8.496;2023-04-01T02:50:54;98560.59;;;11.74;62.92
50702;BME280;36670;50.094;8.496;2023-04-01T02:53:19;98563.00;;;11.61;63.46
50702;BME280;36670;50.094;8.496;2023-04-01T02:55:45;98562.50;;;11.59;63.51
50702;BME280;36670;50.094;8.496;2023-04-01T02:58:10;98559.88;;;11.68;63.36
50702;BME280;36670;50.094;8.496;2023-04-01T03:00:36;98553.53;;;11.68;63.81
50702;BME280;36670;50.094;8.496;2023-04-01T03:03:02;98560.78;;;11.64;63.47
50702;BME280;36670;50.094;8.496;2023-04-01T03:05:28;98561.81;;;11.68;63.47
50702;BME280;36670;50.094;8.496;2023-04-01T03:07:53;98553.19;;;11.55;64.15
50702;BME280;36670;50.094;8.496;2023-04-01T03:10:18;98557.56;;;11.56;63.97
50702;BME280;36670;50.094;8.496;2023-04-01T03:12:43;98572.00;;;11.53;64.45
50702;BME280;36670;50.094;8.496;2023-04-01T03:15:11;98566.47;;;11.53;64.61
50702;BME280;36670;50.094;8.496;2023-04-01T03:17:37;98558.94;;;11.73;64.22
50702;BME280;36670;50.094;8.496;2023-04-01T03:20:03;98569.84;;;11.83;63.87
50702;BME280;36670;50.094;8.496;2023-04-01T03:22:30;98572.47;;;12.07;63.34
50702;BME280;36670;50.094;8.496;2023-04-01T03:24:55;98566.13;;;12.07;62.89
50702;BME280;36670;50.094;8.496;2023-04-01T03:27:20;98566.31;;;11.97;63.70
50702;BME280;36670;50.094;8.496;2023-04-01T03:29:45;98571.78;;;11.83;63.04
50702;BME280;36670;50.094;8.496;2023-04-01T03:32:11;98566.84;;;11.79;63.18
50702;BME280;36670;50.094;8.496;2023-04-01T03:34:36;98562.84;;;11.72;63.98
50702;BME280;36670;50.094;8.496;2023-04-01T03:37:01;98564.16;;;11.74;63.30
50702;BME280;36670;50.094;8.496;2023-04-01T03:39:27;98568.88;;;11.74;64.19
50702;BME280;36670;50.094;8.496;2023-04-01T03:41:52;98560.28;;;11.75;63.52
50702;BME280;36670;50.094;8.496;2023-04-01T03:44:17;98571.16;;;11.72;63.82
50702;BME280;36670;50.094;8.496;2023-04-01T03:46:42;98563.28;;;11.79;64.02
50702;BME280;36670;50.094;8.496;2023-04-01T03:49:09;98564.44;;;11.92;63.21
50702;BME280;36670;50.094;8.496;2023-04-01T03:51:42;98570.66;;;11.84;63.73
50702;BME280;36670;50.094;8.496;2023-04-01T03:54:09;98569.22;;;11.86;63.03
50702;BME280;36670;50.094;8.496;2023-04-01T03:56:34;98563.16;;;11.84;63.88
50702;BME280;36670;50.094;8.496;2023-04-01T03:59:03;98565.00;;;11.75;63.91
50702;BME280;36670;50.094;8.496;2023-04-01T04:01:28;98567.38;;;11.82;63.64
50702;BME280;36670;50.094;8.496;2023-04-01T04:03:54;98571.16;;;11.72;63.79
50702;BME280;36670;50.094;8.496;2023-04-01T04:06:20;98566.03;;;11.79;63.67
50702;BME280;36670;50.094;8.496;2023-04-01T04:08:45;98570.13;;;11.68;64.43
50702;BME280;36670;50.094;8.496;2023-04-01T04:11:10;98568.47;;;11.67;63.81
50702;BME280;36670;50.094;8.496;2023-04-01T04:13:36;98566.00;;;11.65;64.40
50702;BME280;36670;50.094;8.496;2023-04-01T04:16:02;98571.63;;;11.60;64.32
50702;BME280;36670;50.094;8.496;2023-04-01T04:18:28;98566.03;;;11.79;63.98
50702;BME280;36670;50.094;8.496;2023-04-01T04:20:54;98560.38;;;11.70;64.67
50702;BME280;36670;50.094;8.496;2023-04-01T04:23:20;98555.06;;;11.74;64.28
50702;BME280;36670;50.094;8.496;2023-04-01T04:28:23;98564.84;;;11.66;64.24
50702;BME280;36670;50.094;8.496;2023-04-01T04:30:48;98557.47;;;11.61;64.81
50702;BME280;36670;50.094;8.496;2023-04-01T04:33:13;98563.25;;;11.65;64.93
50702;BME280;36670;50.094;8.496;2023-04-01T04:35:39;98576.75;;;11.67;64.82
50702;BME280;36670;50.094;8.496;2023-04-01T04:38:04;98568.53;;;11.61;65.00
50702;BME280;36670;50.094;8.496;2023-04-01T04:40:29;98570.38;;;11.66;64.74
50702;BME280;36670;50.094;8.496;2023-04-01T04:42:55;98568.09;;;11.73;64.13
50702;BME280;36670;50.094;8.496;2023-04-01T04:45:20;98560.41;;;11.84;63.87
50702;BME280;36670;50.094;8.496;2023-04-01T04:47:45;98563.88;;;11.76;64.18
50702;BME280;36670;50.094;8.496;2023-04-01T04:50:11;98565.16;;;11.65;64.41
50702;BME280;36670;50.094;8.496;2023-04-01T04:52:37;98562.44;;;11.78;63.72
50702;BME280;36670;50.094;8.496;2023-04-01T04:55:02;98565.63;;;11.72;64.46
50702;BME280;36670;50.094;8.496;2023-04-01T04:57:27;98571.66;;;11.74;64.44
50702;BME280;36670;50.094;8.496;2023-04-01T04:59:53;98557.44;;;11.81;64.65
50702;BME280;36670;50.094;8.496;2023-04-01T05:02:18;98560.22;;;11.81;64.43
50702;BME280;36670;50.094;8.496;2023-04-01T05:04:43;98566.44;;;11.72;64.19
50702;BME280;36670;50.094;8.496;2023-04-01T05:07:08;98566.81;;;11.66;64.13
50702;BME280;36670;50.094;8.496;2023-04-01T05:09:34;98564.34;;;11.64;64.56
50702;BME280;36670;50.094;8.496;2023-04-01T05:11:59;98556.38;;;11.63;65.19
50702;BME280;36670;50.094;8.496;2023-04-01T05:14:25;98564.66;;;11.63;64.73
50702;BME280;36670;50.094;8.496;2023-04-01T05:16:50;98573.47;;;11.65;64.98
50702;BME280;36670;50.094;8.496;2023-04-01T05:19:15;98568.63;;;11.56;65.99
50702;BME280;36670;50.094;8.496;2023-04-01T05:21:41;98553.25;;;11.50;66.00
50702;BME280;36670;50.094;8.496;2023-04-01T05:24:09;98561.91;;;11.63;65.91
50702;BME280;36670;50.094;8.496;2023-04-01T05:26:35;98567.88;;;11.51;66.45
50702;BME280;36670;50.094;8.496;2023-04-01T05:29:03;98570.56;;;11.56;66.25
50702;BME280;36670;50.094;8.496;2023-04-01T05:31:28;98563.41;;;11.55;67.19
50702;BME280;36670;50.094;8.496;2023-04-01T05:33:54;98564.50;;;11.40;67.02
50702;BME280;36670;50.094;8.496;2023-04-01T05:36:20;98562.09;;;11.33;67.86
50702;BME280;36670;50.094;8.496;2023-04-01T05:38:45;98566.78;;;11.33;67.49
50702;BME280;36670;50.094;8.496;2023-04-01T05:41:11;98568.38;;;11.20;68.08
50702;BME280;36670;50.094;8.496;2023-04-01T05:43:39;98569.41;;;11.24;68.61
50702;BME280;36670;50.094;8.496;2023-04-01T05:46:05;98564.50;;;11.21;68.29
50702;BME280;36670;50.094;8.496;2023-04-01T05:48:32;98569.03;;;11.31;67.73
50702;BME280;36670;50.094;8.496;2023-04-01T05:50:57;98566.44;;;11.20;68.68
50702;BME280;36670;50.094;8.496;2023-04-01T05:53:23;98566.34;;;11.25;68.36
50702;BME280;36670;50.094;8.496;2023-04-01T05:55:48;98559.84;;;11.35;68.05
50702;BME280;36670;50.094;8.496;2023-04-01T05:58:13;98574.56;;;11.31;68.19
50702;BME280;36670;50.094;8.496;2023-04-01T06:00:38;98560.38;;;11.18;67.77
50702;BME280;36670;50.094;8.496;2023-04-01T06:03:04;98571.50;;;11.13;67.75
50702;BME280;36670;50.094;8.496;2023-04-01T06:05:33;98569.13;;;11.25;67.68
50702;BME280;36670;50.094;8.496;2023-04-01T06:08:08;98560.22;;;11.28;68.35
50702;BME280;36670;50.094;8.496;2023-04-01T06:13:56;98568.88;;;11.41;67.74
50702;BME280;36670;50.094;8.496;2023-04-01T06:19:39;98559.03;;;11.16;68.56
50702;BME280;36670;50.094;8.496;2023-04-01T06:22:15;98564.13;;;11.27;67.52
50702;BME280;36670;50.094;8.496;2023-04-01T06:30:47;98565.06;;;11.37;68.30
50702;BME280;36670;50.094;8.496;2023-04-01T06:33:30;98565.59;;;11.58;67.22
50702;BME280;36670;50.094;8.496;2023-04-01T06:36:25;98564.13;;;11.60;67.06
50702;BME280;36670;50.094;8.496;2023-04-01T06:44:35;98569.34;;;11.62;66.73
50702;BME280;36670;50.094;8.496;2023-04-01T06:53:20;98575.88;;;11.52;67.02
50702;BME280;36670;50.094;8.496;2023-04-01T06:56:00;98571.19;;;11.53;67.96
50702;BME280;36670;50.094;8.496;2023-04-01T06:58:34;98574.31;;;11.46;67.95
50702;BME280;36670;50.094;8.496;2023-04-01T07:01:06;98572.00;;;11.34;68.87
50702;BME280;36670;50.094;8.496;2023-04-01T07:03:40;98571.88;;;11.44;68.83
50702;BME280;36670;50.094;8.496;2023-04-01T07:06:14;98563.88;;;11.43;68.59
50702;BME280;36670;50.094;8.496;2023-04-01T07:08:43;98570.88;;;11.54;69.12
50702;BME280;36670;50.094;8.496;2023-04-01T07:11:22;98574.41;;;11.41;69.31
50702;BME280;36670;50.094;8.496;2023-04-01T07:13:49;98573.97;;;11.34;68.96
50702;BME280;36670;50.094;8.496;2023-04-01T07:16:36;98571.63;;;11.41;69.04
50702;BME280;36670;50.094;8.496;2023-04-01T07:19:06;98575.97;;;11.47;69.53
50702;BME280;36670;50.094;8.496;2023-04-01T07:24:40;98576.81;;;11.81;69.12
50702;BME280;36670;50.094;8.496;2023-04-01T07:27:11;98577.09;;;11.79;69.48
50702;BME280;36670;50.094;8.496;2023-04-01T07:29:36;98574.22;;;12.03;68.65
50702;BME280;36670;50.094;8.496;2023-04-01T07:32:20;98584.56;;;12.11;69.11
50702;BME280;36670;50.094;8.496;2023-04-01T07:35:15;98580.69;;;12.12;68.49
50702;BME280;36670;50.094;8.496;2023-04-01T07:40:56;98589.91;;;12.22;69.36
50702;BME280;36670;50.094;8.496;2023-04-01T07:46:56;98597.69;;;12.20;68.47
50702;BME280;36670;50.094;8.496;2023-04-01T07:49:48;98595.56;;;12.17;68.56
50702;BME280;36670;50.094;8.496;2023-04-01T07:52:37;98597.09;;;12.37;68.88
50702;BME280;36670;50.094;8.496;2023-04-01T07:57:53;98598.75;;;12.38;69.18
50702;BME280;36670;50.094;8.496;2023-04-01T08:00:29;98596.59;;;12.35;69.14
50702;BME280;36670;50.094;8.496;2023-04-01T08:05:57;98600.09;;;12.40;68.24
50702;BME280;36670;50.094;8.496;2023-04-01T08:14:01;98613.22;;;12.62;67.93
50702;BME280;36670;50.094;8.496;2023-04-01T08:16:49;98607.38;;;12.64;67.61
50702;BME280;36670;50.094;8.496;2023-04-01T08:19:21;98612.38;;;12.62;68.00
50702;BME280;36670;50.094;8.496;2023-04-01T08:21:57;98609.50;;;12.67;67.32
50702;BME280;36670;50.094;8.496;2023-04-01T08:24:42;98614.25;;;12.67;67.40
50702;BME280;36670;50.094;8.496;2023-04-01T08:30:01;98621.69;;;12.52;68.09
50702;BME280;36670;50.094;8.496;2023-04-01T08:32:38;98622.94;;;12.60;68.32
50702;BME280;36670;50.094;8.496;2023-04-01T08:35:11;98622.63;;;12.75;68.13
50702;BME280;36670;50.094;8.496;2023-04-01T08:37:41;98619.66;;;12.86;68.79
50702;BME280;36670;50.094;8.496;2023-04-01T08:45:49;98622.03;;;12.64;68.90
50702;BME280;36670;50.094;8.496;2023-04-01T08:51:05;98627.03;;;12.90;69.06
50702;BME280;36670;50.094;8.496;2023-04-01T08:53:57;98622.38;;;13.13;68.65
50702;BME280;36670;50.094;8.496;2023-04-01T08:56:54;98628.13;;;13.17;68.29
50702;BME280;36670;50.094;8.496;2023-04-01T08:59:41;98626.56;;;13.39;68.60
50702;BME280;36670;50.094;8.496;2023-04-01T09:13:24;98631.50;;;13.28;68.70
50702;BME280;36670;50.094;8.496;2023-04-01T09:24:20;98634.88;;;13.39;68.29
50702;BME280;36670;50.094;8.496;2023-04-01T09:27:23;98646.09;;;13.20;69.15
50702;BME280;36670;50.094;8.496;2023-04-01T09:30:07;98640.72;;;13.74;68.79
50702;BME280;36670;50.094;8.496;2023-04-01T09:33:03;98640.06;;;14.54;66.36
50702;BME280;36670;50.094;8.496;2023-04-01T09:41:16;98642.81;;;13.91;67.73
50702;BME280;36670;50.094;8.496;2023-04-01T09:49:47;98657.00;;;13.89;68.39
50702;BME280;36670;50.094;8.496;2023-04-01T09:54:52;98655.69;;;14.18;67.90
50702;BME280;36670;50.094;8.496;2023-04-01T10:23:13;98666.81;;;13.95;69.91
50702;BME280;36670;50.094;8.496;2023-04-01T10:37:15;98667.13;;;14.16;68.85
50702;BME280;36670;50.094;8.496;2023-04-01T10:40:06;98667.00;;;14.22;69.75
50702;BME280;36670;50.094;8.496;2023-04-01T10:48:13;98666.44;;;14.33;69.13
50702;BME280;36670;50.094;8.496;2023-04-01T10:51:01;98653.50;;;14.60;69.01
50702;BME280;36670;50.094;8.496;2023-04-01T10:53:37;98662.09;;;14.50;68.82
50702;BME280;36670;50.094;8.496;2023-04-01T10:56:33;98658.84;;;14.57;68.84
50702;BME280;36670;50.094;8.496;2023-04-01T11:16:24;98668.47;;;14.82;67.92
50702;BME280;36670;50.094;8.496;2023-04-01T11:25:05;98674.41;;;14.98;67.36
50702;BME280;36670;50.094;8.496;2023-04-01T11:28:04;98679.84;;;15.12;68.05
50702;BME280;36670;50.094;8.496;2023-04-01T11:33:38;98664.06;;;14.81;68.24
50702;BME280;36670;50.094;8.496;2023-04-01T11:36:26;98665.53;;;14.78;68.12
50702;BME280;36670;50.094;8.496;2023-04-01T11:39:11;98674.09;;;14.99;67.79
50702;BME280;36670;50.094;8.496;2023-04-01T11:44:24;98668.94;;;14.75;67.13
50702;BME280;36670;50.094;8.496;2023-04-01T11:47:03;98662.00;;;14.64;67.43
50702;BME280;36670;50.094;8.496;2023-04-01T11:55:59;98670.81;;;14.34;68.53
50702;BME280;36670;50.094;8.496;2023-04-01T11:58:53;98673.44;;;14.31;68.25
50702;BME280;36670;50.094;8.496;2023-04-01T12:01:40;98679.78;;;14.31;68.71
50702;BME280;36670;50.094;8.496;2023-04-01T12:04:26;98674.38;;;14.26;68.80
50702;BME280;36670;50.094;8.496;2023-04-01T12:07:15;98689.94;;;14.36;69.20
50702;BME280;36670;50.094;8.496;2023-04-01T12:09:52;98691.09;;;14.35;68.61
50702;BME280;36670;50.094;8.496;2023-04-01T12:12:52;98698.81;;;14.47;69.10
50702;BME280;36670;50.094;8.496;2023-04-01T12:16:04;98705.13;;;14.39;69.52
50702;BME280;36670;50.094;8.496;2023-04-01T12:21:26;98701.81;;;14.28;69.82
50702;BME280;36670;50.094;8.496;2023-04-01T12:24:06;98713.84;;;14.46;69.16
50702;BME280;36670;50.094;8.496;2023-04-01T12:26:43;98716.31;;;14.47;69.64
50702;BME280;36670;50.094;8.496;2023-04-01T12:32:17;98717.72;;;14.13;69.87
50702;BME280;36670;50.094;8.496;2023-04-01T12:42:57;98730.34;;;14.20;71.11
50702;BME280;36670;50.094;8.496;2023-04-01T12:45:49;98724.53;;;14.30;70.89
50702;BME280;36670;50.094;8.496;2023-04-01T13:21:16;98725.88;;;15.35;69.03
50702;BME280;36670;50.094;8.496;2023-04-01T13:29:18;98742.25;;;15.46;68.83
50702;BME280;36670;50.094;8.496;2023-04-01T13:34:34;98751.69;;;15.94;68.91
50702;BME280;36670;50.094;8.496;2023-04-01T13:37:30;98749.22;;;16.27;69.23
50702;BME280;36670;50.094;8.496;2023-04-01T13:40:14;98751.00;;;16.14;67.11
50702;BME280;36670;50.094;8.496;2023-04-01T13:45:18;98754.47;;;16.02;67.07
50702;BME280;36670;50.094;8.496;2023-04-01T13:48:20;98754.28;;;15.81;67.34
50702;BME280;36670;50.094;8.496;2023-04-01T13:51:04;98757.19;;;15.67;66.99
50702;BME280;36670;50.094;8.496;2023-04-01T13:53:55;98760.91;;;15.54;67.17
50702;BME280;36670;50.094;8.496;2023-04-01T14:07:41;98761.88;;;15.00;68.47
50702;BME280;36670;50.094;8.496;2023-04-01T14:13:10;98764.56;;;15.14;69.00
50702;BME280;36670;50.094;8.496;2023-04-01T14:15:48;98762.81;;;15.36;67.78
50702;BME280;36670;50.094;8.496;2023-04-01T14:26:50;98769.94;;;15.11;68.29
50702;BME280;36670;50.094;8.496;2023-04-01T14:32:20;98771.69;;;14.98;68.20
50702;BME280;36670;50.094;8.496;2023-04-01T14:38:08;98780.09;;;15.15;67.43
50702;BME280;36670;50.094;8.496;2023-04-01T14:40:54;98789.75;;;15.18;67.67
50702;BME280;36670;50.094;8.496;2023-04-01T14:43:45;98791.59;;;15.23;67.43
50702;BME280;36670;50.094;8.496;2023-04-01T14:46:30;98793.53;;;15.22;67.14
50702;BME280;36670;50.094;8.496;2023-04-01T14:49:15;98789.03;;;15.04;67.30
50702;BME280;36670;50.094;8.496;2023-04-01T14:51:42;98785.97;;;15.14;68.22
50702;BME280;36670;50.094;8.496;2023-04-01T14:54:13;98796.25;;;14.82;68.14
50702;BME280;36670;50.094;8.496;2023-04-01T14:56:44;98782.00;;;14.75;68.38
50702;BME280;36670;50.094;8.496;2023-04-01T14:59:27;98787.69;;;14.92;68.49
50702;BME280;36670;50.094;8.496;2023-04-01T15:02:24;98787.84;;;14.96;68.12
50702;BME280;36670;50.094;8.496;2023-04-01T15:07:41;98791.59;;;14.91;68.68
50702;BME280;36670;50.094;8.496;2023-04-01T15:16:05;98802.84;;;14.41;70.00
50702;BME280;36670;50.094;8.496;2023-04-01T15:18:52;98814.50;;;14.51;70.14
50702;BME280;36670;50.094;8.496;2023-04-01T15:21:41;98810.78;;;14.56;69.33
50702;BME280;36670;50.094;8.496;2023-04-01T15:24:24;98811.34;;;14.90;69.64
50702;BME280;36670;50.094;8.496;2023-04-01T15:27:18;98813.78;;;14.82;68.73
50702;BME280;36670;50.094;8.496;2023-04-01T15:38:23;98836.69;;;14.88;68.91
50702;BME280;36670;50.094;8.496;2023-04-01T15:41:03;98834.78;;;14.75;68.73
50702;BME280;36670;50.094;8.496;2023-04-01T15:43:44;98821.66;;;14.66;68.64
50702;BME280;36670;50.094;8.496;2023-04-01T15:46:36;98836.81;;;14.83;69.15
50702;BME280;36670;50.094;8.496;2023-04-01T15:49:15;98839.47;;;14.88;69.70
50702;BME280;36670;50.094;8.496;2023-04-01T16:02:54;98844.44;;;15.31;67.61
50702;BME280;36670;50.094;8.496;2023-04-01T16:05:59;98857.31;;;14.96;68.35
50702;BME280;36670;50.094;8.496;2023-04-01T16:09:00;98855.97;;;14.93;67.42
50702;BME280;36670;50.094;8.496;2023-04-01T16:14:41;98859.69;;;14.80;67.83
50702;BME280;36670;50.094;8.496;2023-04-01T16:17:30;98853.47;;;14.83;67.82
50702;BME280;36670;50.094;8.496;2023-04-01T16:20:01;98855.38;;;14.74;68.32
50702;BME280;36670;50.094;8.496;2023-04-01T16:22:37;98845.09;;;14.74;68.63
50702;BME280;36670;50.094;8.496;2023-04-01T16:28:13;98873.66;;;14.97;68.34
50702;BME280;36670;50.094;8.496;2023-04-01T16:30:46;98869.28;;;14.60;68.53
50702;BME280;36670;50.094;8.496;2023-04-01T16:33:20;98883.91;;;14.65;68.54
50702;BME280;36670;50.094;8.496;2023-04-01T16:36:09;98881.72;;;14.40;69.48
50702;BME280;36670;50.094;8.496;2023-04-01T16:41:31;98892.06;;;14.48;70.04
50702;BME280;36670;50.094;8.496;2023-04-01T16:44:29;98888.59;;;14.42;70.36
50702;BME280;36670;50.094;8.496;2023-04-01T16:46:59;98897.84;;;14.38;69.97
50702;BME280;36670;50.094;8.496;2023-04-01T16:49:46;98904.13;;;14.43;70.25
50702;BME280;36670;50.094;8.496;2023-04-01T16:52:34;98910.41;;;14.35;69.74
50702;BME280;36670;50.094;8.496;2023-04-01T16:55:14;98917.16;;;13.92;70.50
50702;BME280;36670;50.094;8.496;2023-04-01T16:57:45;98916.81;;;14.08;70.25
50702;BME280;36670;50.094;8.496;2023-04-01T17:03:02;98925.16;;;14.08;70.56
50702;BME280;36670;50.094;8.496;2023-04-01T17:05:44;98932.66;;;13.93;70.31
50702;BME280;36670;50.094;8.496;2023-04-01T17:08:29;98932.34;;;13.95;70.27
50702;BME280;36670;50.094;8.496;2023-04-01T17:11:05;98938.72;;;13.81;70.29
50702;BME280;36670;50.094;8.496;2023-04-01T17:13:52;98943.47;;;13.81;71.40
50702;BME280;36670;50.094;8.496;2023-04-01T17:17:05;98952.19;;;13.88;70.29
50702;BME280;36670;50.094;8.496;2023-04-01T17:19:42;98957.72;;;13.74;71.57
50702;BME280;36670;50.094;8.496;2023-04-01T17:25:23;98955.44;;;13.76;71.11
50702;BME280;36670;50.094;8.496;2023-04-01T17:27:59;98954.88;;;13.79;70.89
50702;BME280;36670;50.094;8.496;2023-04-01T17:33:50;98963.50;;;13.78;71.27
50702;BME280;36670;50.094;8.496;2023-04-01T17:36:38;98963.06;;;13.71;71.33
50702;BME280;36670;50.094;8.496;2023-04-01T17:47:52;98980.56;;;13.38;70.95
50702;BME280;36670;50.094;8.496;2023-04-01T18:01:21;99008.06;;;13.15;71.84
50702;BME280;36670;50.094;8.496;2023-04-01T18:04:07;99005.91;;;13.12;71.29
50702;BME280;36670;50.094;8.496;2023-04-01T18:09:36;99024.19;;;12.75;73.06
50702;BME280;36670;50.094;8.496;2023-04-01T18:12:12;99020.13;;;12.68;73.24
50702;BME280;36670;50.094;8.496;2023-04-01T18:17:18;99032.59;;;12.46;73.48
50702;BME280;36670;50.094;8.496;2023-04-01T18:22:33;99030.00;;;12.55;72.91
50702;BME280;36670;50.094;8.496;2023-04-01T18:25:21;99040.03;;;12.70;72.85
50702;BME280;36670;50.094;8.496;2023-04-01T18:27:51;99042.56;;;12.66;72.91
50702;BME280;36670;50.094;8.496;2023-04-01T18:30:31;99050.75;;;12.76;72.46
50702;BME280;36670;50.094;8.496;2023-04-01T18:35:48;99056.66;;;12.70;72.57
50702;BME280;36670;50.094;8.496;2023-04-01T18:38:23;99065.63;;;12.61;72.69
50702;BME280;36670;50.094;8.496;2023-04-01T18:41:15;99070.66;;;12.78;72.48
50702;BME280;36670;50.094;8.496;2023-04-01T18:46:34;99082.72;;;14.11;68.95
50702;BME280;36670;50.094;8.496;2023-04-01T18:49:15;99071.66;;;14.66;68.60
50702;BME280;36670;50.094;8.496;2023-04-01T18:51:57;99081.00;;;15.21;66.49
50702;BME280;36670;50.094;8.496;2023-04-01T18:54:29;99075.03;;;14.49;67.09
50702;BME280;36670;50.094;8.496;2023-04-01T18:57:12;99088.13;;;13.88;68.50
50702;BME280;36670;50.094;8.496;2023-04-01T18:59:45;99097.13;;;13.28;68.94
50702;BME280;36670;50.094;8.496;2023-04-01T19:02:32;99105.59;;;12.98;69.55
50702;BME280;36670;50.094;8.496;2023-04-01T19:05:14;99115.03;;;12.73;70.06
50702;BME280;36670;50.094;8.496;2023-04-01T19:10:17;99120.03;;;12.23;72.30
50702;BME280;36670;50.094;8.496;2023-04-01T19:15:50;99125.47;;;12.57;71.13
50702;BME280;36670;50.094;8.496;2023-04-01T19:19:08;99130.53;;;12.74;70.74
50702;BME280;36670;50.094;8.496;2023-04-01T19:21:35;99124.59;;;12.86;71.08